Flight Track Log - Related Links

Times and Time Zones

All times are in EDT time to prevent confusion due to time zone crossing. See the N1705R flight status page for this flight to view local times or setup timezone preferences in your user account.

Time Position Orientation Groundspeed Altitude Reporting Facility
EDT Latitude Longitude Course Direction KTS MPH feet Rate Location/Type
Sat 02:12:05 PM 33.5833 -117.1667 304° West 106 122 4,100  Level Southern California TRACON
Sat 02:13:05 PM 33.6000 -117.2000 301° West 112 129 4,400 198 Climbing Southern California TRACON
Sat 02:14:06 PM 33.6167 -117.2333 301° West 134 154 4,500  Climbing Southern California TRACON
Sat 02:15:06 PM 33.6500 -117.2667 320° Northwest 147 169 4,400  Descending Southern California TRACON
Sat 02:16:06 PM 33.6833 -117.3000 320° Northwest 143 165 4,500 50 Climbing Southern California TRACON
Sat 02:17:00 PM 33.6913 -117.3339 304° West  Level Estimated
Sat 02:17:06 PM 33.7167 -117.3333 320° Northwest 145 167 4,500  Level Southern California TRACON
Sat 02:18:01 PM 33.7333 -117.3667 301° West 146 168 4,500 -52 Level Southern California TRACON
Sat 02:19:01 PM 33.7500 -117.4167 292° West 147 169 4,400  Descending Southern California TRACON
Sat 02:20:01 PM 33.7667 -117.4500 301° West 145 167 4,500 50 Climbing Southern California TRACON
Sat 02:21:02 PM 33.7833 -117.5000 292° West 146 168 4,500  Level Southern California TRACON
Sat 02:22:02 PM 33.8167 -117.5333 320° Northwest 146 168 4,500  Level Southern California TRACON
Sat 02:23:02 PM 33.8167 -117.5833 270° West 145 167 4,500  Level Southern California TRACON
Sat 02:23:33 PM 33.8289 -117.6028 307° West 146 168 4,500  Level Los Angeles Center
Sat 02:24:35 PM 33.8492 -117.6436 301° West 144 166 4,500 48 Level Los Angeles Center
Sat 02:25:37 PM 33.8756 -117.6931 303° West 146 168 4,600 -145 Climbing Los Angeles Center
Sat 02:26:39 PM 33.9042 -117.7306 313° West 148 170 4,200 -353 Descending Los Angeles Center
Sat 02:27:53 PM 33.9300 -117.7742 306° West 154 177 3,800 -438 Descending Los Angeles Center
Sat 02:28:56 PM 33.9597 -117.8269 304° West 158 182 3,200 -528 Descending Los Angeles Center
Sat 02:29:58 PM 33.9858 -117.8694 307° West 158 182 2,700 -532 Descending Los Angeles Center
Sat 02:31:00 PM 34.0156 -117.9239 303° West 160 184 2,100 -435 Descending Los Angeles Center
Sat 02:32:02 PM 34.0367 -117.9669 301° West 157 181 1,800 -341 Descending Los Angeles Center
Sat 02:33:03 PM 34.0667 -118.0000 318° Northwest 134 154 1,400 -298 Descending Southern California TRACON
Sat 02:34:03 PM 34.0833 -118.0167 320° Northwest 123 142 1,200 -150 Descending Southern California TRACON
Sat 02:35:03 PM 34.1000 -118.0167 360° North 91 105 1,100 -100 Descending Southern California TRACON
Sat 02:38:00 PM 34.0833 -118.0333 North  Level FlightAware Approximate

Login

Don't have an account? Register now (free) for customized features, flight alerts, and more!